createdAt,value
2022-08-25T00:00:47.107Z,16.62
2022-08-25T00:04:53.637Z,16.55
2022-08-25T00:08:59.831Z,16.47
2022-08-25T00:13:03.535Z,16.25
2022-08-25T00:17:07.096Z,16.21
2022-08-25T00:21:09.786Z,16.16
2022-08-25T00:25:13.764Z,16.06
2022-08-25T00:29:16.727Z,15.94
2022-08-25T00:33:19.733Z,15.90
2022-08-25T00:37:22.296Z,15.82
2022-08-25T00:41:26.672Z,15.86
2022-08-25T00:45:29.560Z,15.91
2022-08-25T00:49:36.430Z,15.78
2022-08-25T00:53:40.729Z,15.71
2022-08-25T00:57:48.393Z,15.62
2022-08-25T01:01:52.374Z,15.43
2022-08-25T01:05:56.616Z,15.36
2022-08-25T01:10:01.273Z,15.37
2022-08-25T01:14:06.570Z,15.44
2022-08-25T01:18:09.270Z,15.46
2022-08-25T01:22:13.240Z,15.49
2022-08-25T01:26:18.332Z,15.50
2022-08-25T01:30:24.796Z,15.45
2022-08-25T01:34:29.840Z,15.15
2022-08-25T01:38:33.776Z,15.02
2022-08-25T01:42:47.626Z,15.03
2022-08-25T01:46:50.179Z,14.93
2022-08-25T01:50:52.751Z,15.01
2022-08-25T01:54:56.718Z,15.17
2022-08-25T01:58:59.296Z,15.25
2022-08-25T02:03:01.931Z,14.88
2022-08-25T02:07:08.967Z,14.78
2022-08-25T02:11:14.813Z,14.91
2022-08-25T02:15:17.510Z,14.86
2022-08-25T02:19:22.548Z,14.92
2022-08-25T02:23:25.115Z,14.99
2022-08-25T02:27:29.402Z,14.91
2022-08-25T02:31:32.027Z,14.88
2022-08-25T02:35:34.667Z,14.81
2022-08-25T02:39:37.563Z,14.68
2022-08-25T02:43:42.742Z,14.60
2022-08-25T02:47:45.988Z,14.34
2022-08-25T02:51:48.614Z,14.29
2022-08-25T02:55:51.158Z,14.35
2022-08-25T02:59:55.140Z,14.47
2022-08-25T03:03:58.697Z,14.47
2022-08-25T03:08:01.364Z,14.37
2022-08-25T03:12:04.532Z,14.33
2022-08-25T03:16:11.442Z,14.05
2022-08-25T03:20:15.384Z,14.11
2022-08-25T03:24:17.935Z,14.08
2022-08-25T03:28:19.674Z,14.07
2022-08-25T03:32:28.816Z,14.09
2022-08-25T03:36:31.658Z,13.92
2022-08-25T03:40:34.202Z,13.93
2022-08-25T03:44:36.775Z,14.04
2022-08-25T03:48:40.684Z,13.94
2022-08-25T03:52:43.496Z,13.87
2022-08-25T03:56:46.656Z,13.81
2022-08-25T04:00:49.264Z,13.89
2022-08-25T04:04:53.172Z,13.97
2022-08-25T04:08:58.705Z,14.09
2022-08-25T04:13:01.808Z,14.20
2022-08-25T04:17:04.762Z,14.32
2022-08-25T04:21:10.495Z,14.20
2022-08-25T04:25:13.936Z,14.05
2022-08-25T04:29:18.042Z,14.03
2022-08-25T04:33:20.616Z,14.00
2022-08-25T04:37:24.606Z,14.08
2022-08-25T04:41:28.614Z,14.17
2022-08-25T04:45:31.194Z,14.29
2022-08-25T04:49:33.807Z,14.46
2022-08-25T04:53:38.096Z,14.44
2022-08-25T04:57:40.660Z,14.60
2022-08-25T05:01:46.182Z,14.67
2022-08-25T05:05:53.410Z,14.91
2022-08-25T05:09:57.290Z,15.00
2022-08-25T05:14:02.818Z,15.15
2022-08-25T05:18:05.475Z,15.30
2022-08-25T05:22:08.022Z,15.52
2022-08-25T05:26:19.574Z,15.69
2022-08-25T05:30:22.795Z,15.75
2022-08-25T05:34:25.704Z,15.78
2022-08-25T05:38:28.975Z,15.99
2022-08-25T05:42:32.931Z,17.15
2022-08-25T05:46:35.505Z,17.43
2022-08-25T05:50:38.088Z,17.65
2022-08-25T05:54:40.877Z,17.55
2022-08-25T05:58:45.314Z,17.81
2022-08-25T06:02:49.617Z,18.43
2022-08-25T06:06:53.900Z,18.29
2022-08-25T06:10:56.526Z,18.61
2022-08-25T06:15:01.706Z,18.86
2022-08-25T06:19:04.600Z,19.23
2022-08-25T06:23:07.139Z,19.56
2022-08-25T06:27:09.672Z,19.65
2022-08-25T06:31:14.075Z,20.12
2022-08-25T06:35:19.037Z,20.51
2022-08-25T06:39:22.111Z,20.84
2022-08-25T06:43:25.766Z,21.27
2022-08-25T06:47:30.053Z,21.84
2022-08-25T06:51:32.713Z,22.23
2022-08-25T06:55:36.120Z,22.42
2022-08-25T06:59:39.088Z,22.31
2022-08-25T07:03:45.702Z,22.14
2022-08-25T07:07:48.298Z,22.55
2022-08-25T07:11:51.002Z,22.78
2022-08-25T07:15:56.009Z,22.53
2022-08-25T07:19:59.963Z,22.70
2022-08-25T07:24:05.636Z,22.77
2022-08-25T07:28:09.346Z,23.07
2022-08-25T07:32:13.017Z,23.71
2022-08-25T07:36:17.816Z,24.22
2022-08-25T07:40:23.420Z,24.41
2022-08-25T07:44:28.019Z,24.64
2022-08-25T07:48:31.051Z,24.38
2022-08-25T07:52:35.084Z,24.27
2022-08-25T07:56:43.051Z,24.48
2022-08-25T08:00:49.323Z,24.83
2022-08-25T08:04:55.118Z,25.13
2022-08-25T08:08:59.915Z,25.38
2022-08-25T08:13:05.720Z,25.68
2022-08-25T08:17:11.543Z,25.88
2022-08-25T08:21:19.934Z,26.10
2022-08-25T08:25:27.417Z,26.26
2022-08-25T08:29:30.655Z,26.30
2022-08-25T08:33:40.567Z,26.33
2022-08-25T08:37:43.523Z,26.43
2022-08-25T08:42:19.009Z,26.53
2022-08-25T08:46:26.078Z,26.69
2022-08-25T08:50:35.488Z,26.83
2022-08-25T08:54:41.753Z,27.39
2022-08-25T08:58:50.268Z,27.57
2022-08-25T09:02:58.445Z,27.97
2022-08-25T09:07:05.413Z,28.67
2022-08-25T09:11:19.872Z,28.96
2022-08-25T09:15:48.674Z,29.31
2022-08-25T09:20:18.662Z,29.51
2022-08-25T09:24:37.505Z,29.45
2022-08-25T09:28:48.859Z,29.47
2022-08-25T09:33:03.815Z,29.92
2022-08-25T09:37:08.061Z,29.70
2022-08-25T09:41:11.276Z,29.76
2022-08-25T09:45:15.599Z,29.92
2022-08-25T09:49:21.338Z,30.06
2022-08-25T09:53:24.747Z,29.80
2022-08-25T09:57:36.558Z,29.72
2022-08-25T10:01:49.842Z,29.45
2022-08-25T10:06:05.446Z,29.24
2022-08-25T10:10:23.162Z,29.28
2022-08-25T10:14:34.971Z,29.11
2022-08-25T10:18:38.513Z,29.26
2022-08-25T10:22:43.663Z,29.32
2022-08-25T10:26:56.819Z,29.84
2022-08-25T10:31:15.470Z,30.05
2022-08-25T10:35:21.214Z,29.96
2022-08-25T10:39:36.700Z,29.68
2022-08-25T10:43:50.588Z,29.72
2022-08-25T10:48:09.500Z,29.92
2022-08-25T10:52:17.826Z,30.08
2022-08-25T10:56:25.867Z,30.48
2022-08-25T11:00:37.352Z,30.33
2022-08-25T11:04:47.295Z,30.46
2022-08-25T11:08:54.388Z,30.79
2022-08-25T11:13:03.454Z,30.52
2022-08-25T11:17:11.823Z,30.74
2022-08-25T11:21:20.364Z,31.45
2022-08-25T11:25:30.159Z,31.40
2022-08-25T11:29:38.116Z,31.17
2022-08-25T11:33:42.417Z,31.87
2022-08-25T11:37:57.966Z,32.32
2022-08-25T11:42:13.395Z,32.49
2022-08-25T11:46:31.248Z,32.22
2022-08-25T11:50:36.310Z,32.04
2022-08-25T11:54:44.588Z,32.02
2022-08-25T11:58:52.022Z,32.21
2022-08-25T12:03:00.851Z,32.07
2022-08-25T12:07:28.750Z,32.05
2022-08-25T12:11:46.457Z,32.59
2022-08-25T12:16:01.538Z,32.44
2022-08-25T12:20:07.572Z,32.14
2022-08-25T12:24:15.098Z,32.17
2022-08-25T12:28:35.031Z,32.56
2022-08-25T12:32:56.113Z,32.66
2022-08-25T12:37:06.180Z,32.65
2022-08-25T12:41:12.446Z,32.51
2022-08-25T12:45:34.464Z,32.76
2022-08-25T12:49:37.257Z,32.30
2022-08-25T12:53:43.439Z,32.45
2022-08-25T12:57:47.991Z,32.70
2022-08-25T13:02:07.657Z,32.81
2022-08-25T13:06:36.581Z,32.94
2022-08-25T13:10:48.005Z,33.02
2022-08-25T13:14:55.072Z,33.32
2022-08-25T13:19:01.444Z,33.53
2022-08-25T13:23:04.252Z,33.69
2022-08-25T13:27:11.154Z,34.22
2022-08-25T13:31:18.594Z,34.29
2022-08-25T13:35:28.930Z,34.30
2022-08-25T13:39:55.311Z,34.20
2022-08-25T13:44:02.025Z,34.18
2022-08-25T13:48:05.780Z,34.13
2022-08-25T13:52:09.200Z,34.39
2022-08-25T13:56:25.531Z,34.78
2022-08-25T14:00:35.217Z,35.42
2022-08-25T14:04:51.145Z,35.12
2022-08-25T14:09:16.051Z,34.94
2022-08-25T14:13:33.065Z,35.94
2022-08-25T14:17:40.811Z,35.95
2022-08-25T14:21:43.788Z,35.71
2022-08-25T14:25:46.431Z,35.80
2022-08-25T14:29:52.664Z,35.65
2022-08-25T14:33:59.672Z,35.54
2022-08-25T14:38:08.313Z,35.56
2022-08-25T14:42:11.583Z,35.40
2022-08-25T14:46:22.564Z,35.10
2022-08-25T14:50:27.318Z,34.93
2022-08-25T14:54:32.695Z,34.71
2022-08-25T14:58:51.238Z,34.83
2022-08-25T15:02:57.244Z,34.75
2022-08-25T15:07:22.098Z,34.70
2022-08-25T15:11:27.056Z,35.01
2022-08-25T15:15:32.868Z,34.93
2022-08-25T15:19:36.060Z,34.84
2022-08-25T15:23:41.215Z,35.08
2022-08-25T15:27:47.866Z,35.09
2022-08-25T15:31:50.713Z,35.28
2022-08-25T15:35:53.711Z,35.29
2022-08-25T15:39:58.319Z,35.26
2022-08-25T15:44:00.912Z,35.77
2022-08-25T15:48:04.219Z,35.78
2022-08-25T15:52:09.955Z,35.30
2022-08-25T15:56:26.994Z,35.07
2022-08-25T16:00:29.824Z,35.24
2022-08-25T16:04:35.187Z,35.04
2022-08-25T16:08:38.383Z,34.82
2022-08-25T16:12:42.561Z,34.88
2022-08-25T16:16:45.411Z,35.23
2022-08-25T16:20:49.038Z,35.03
2022-08-25T16:24:51.698Z,34.67
2022-08-25T16:28:56.103Z,34.20
2022-08-25T16:32:59.180Z,33.92
2022-08-25T16:37:03.823Z,33.96
2022-08-25T16:41:10.190Z,34.39
2022-08-25T16:45:14.173Z,34.82
2022-08-25T16:49:16.885Z,34.90
2022-08-25T16:53:36.192Z,34.94
2022-08-25T16:57:39.020Z,34.32
2022-08-25T17:01:44.006Z,34.25
2022-08-25T17:05:47.227Z,33.57
2022-08-25T17:09:53.082Z,33.26
2022-08-25T17:14:01.204Z,32.94
2022-08-25T17:18:07.468Z,32.73
2022-08-25T17:22:15.607Z,32.72
2022-08-25T17:26:18.465Z,32.69
2022-08-25T17:30:21.289Z,32.99
2022-08-25T17:34:25.898Z,32.97
2022-08-25T17:38:31.454Z,32.67
2022-08-25T17:42:36.120Z,32.66
2022-08-25T17:46:44.107Z,32.23
2022-08-25T17:50:52.242Z,31.83
2022-08-25T17:54:54.801Z,31.40
2022-08-25T17:59:01.992Z,31.27
2022-08-25T18:03:06.242Z,30.87
2022-08-25T18:07:10.171Z,30.60
2022-08-25T18:11:14.339Z,30.27
2022-08-25T18:15:17.460Z,29.99
2022-08-25T18:19:20.540Z,29.69
2022-08-25T18:23:24.514Z,29.40
2022-08-25T18:27:28.363Z,29.14
2022-08-25T18:31:31.590Z,28.75
2022-08-25T18:35:34.935Z,28.49
2022-08-25T18:39:56.280Z,28.05
2022-08-25T18:43:58.942Z,27.66
2022-08-25T18:48:02.369Z,27.31
2022-08-25T18:52:40.191Z,27.03
2022-08-25T18:56:47.253Z,26.57
2022-08-25T19:00:50.353Z,26.24
2022-08-25T19:04:53.008Z,25.96
2022-08-25T19:08:55.637Z,25.92
2022-08-25T19:13:07.789Z,25.80
2022-08-25T19:17:10.938Z,25.66
2022-08-25T19:21:13.475Z,25.63
2022-08-25T19:25:16.256Z,25.76
2022-08-25T19:29:20.614Z,25.82
2022-08-25T19:33:45.033Z,25.83
2022-08-25T19:37:46.168Z,25.50
2022-08-25T19:41:49.164Z,25.38
2022-08-25T19:45:53.176Z,25.20
2022-08-25T19:49:55.799Z,25.04
2022-08-25T19:54:01.546Z,24.98
2022-08-25T19:58:05.507Z,24.91
2022-08-25T20:02:11.371Z,24.93
2022-08-25T20:06:15.903Z,24.80
2022-08-25T20:10:19.811Z,24.64
2022-08-25T20:14:22.868Z,24.37
2022-08-25T20:18:27.735Z,24.24
2022-08-25T20:22:33.493Z,24.22
2022-08-25T20:26:36.146Z,24.00
2022-08-25T20:30:39.425Z,24.01
2022-08-25T20:38:52.407Z,24.04
2022-08-25T20:42:55.634Z,23.94
2022-08-25T20:46:58.520Z,23.90
2022-08-25T20:51:04.835Z,23.89
2022-08-25T20:55:09.052Z,23.73
2022-08-25T20:59:11.847Z,23.69
2022-08-25T21:03:14.282Z,23.49
2022-08-25T21:07:18.684Z,23.33
2022-08-25T21:11:22.740Z,23.25
2022-08-25T21:15:26.074Z,23.20
2022-08-25T21:19:30.132Z,22.99
2022-08-25T21:23:34.166Z,23.02
2022-08-25T21:27:36.769Z,22.94
2022-08-25T21:31:41.163Z,22.63
2022-08-25T21:35:43.797Z,22.52
2022-08-25T21:39:47.716Z,22.42
2022-08-25T21:43:51.176Z,22.62
2022-08-25T21:47:53.794Z,22.65
2022-08-25T21:52:00.925Z,22.54
2022-08-25T21:56:08.093Z,22.58
2022-08-25T22:00:12.689Z,22.58
2022-08-25T22:04:15.992Z,22.34
2022-08-25T22:08:19.544Z,22.31
2022-08-25T22:12:24.950Z,22.30
2022-08-25T22:16:28.109Z,22.25
2022-08-25T22:20:32.274Z,22.41
2022-08-25T22:24:34.842Z,22.38
2022-08-25T22:28:39.216Z,22.31
2022-08-25T22:32:46.164Z,22.30
2022-08-25T22:36:49.087Z,22.25
2022-08-25T22:40:51.538Z,22.27
2022-08-25T22:44:55.484Z,22.27
2022-08-25T22:48:58.179Z,22.21
2022-08-25T22:53:00.804Z,21.98
2022-08-25T22:57:06.674Z,21.86
2022-08-25T23:01:16.338Z,21.77
2022-08-25T23:05:19.288Z,21.83
2022-08-25T23:09:22.188Z,21.93
2022-08-25T23:13:34.347Z,21.99
2022-08-25T23:17:38.723Z,22.09
2022-08-25T23:21:59.073Z,22.25
2022-08-25T23:26:01.950Z,22.25
2022-08-25T23:30:05.022Z,22.24
2022-08-25T23:34:09.876Z,22.29
2022-08-25T23:38:14.535Z,22.37
2022-08-25T23:42:17.106Z,22.48
2022-08-25T23:46:23.603Z,22.48
2022-08-25T23:50:28.228Z,22.47
2022-08-25T23:54:31.724Z,22.54
2022-08-25T23:58:35.784Z,22.64
